Dennistown, Maine
Current Conditions -  °F | °C
As of 2:00 PM on Friday 24 Oct 2014 (Local Time) from CYSC Reporting Station
Overcast Overcast  
Wind Chill: 43°   Ceiling: 1700
Heat Index: 46°   Visibility: 9mi
Dew Point: 41°   Wind: 7mph
Humidity: 81%   Direction: 10°N
Pressure: 29.78"   Gusts: NA
Location:  45.7142°N, 70.304°W
Report Text: CYSC 241800Z AUTO 01006KT 340V060 9SM OVC017 08/05 A2978 RMK SLP090
Loading
Personal Weather Stations






























Interactive Weather Map
Tropical Storm Tracking
New forecast layout! Learn more

10-Day Weather Forecast

Advertisements
Track Severe Weather on mobile